Time;durP1;ratioP1;P1;durP2;ratioP2;P2;SDS_P1;SDS_P2;PMS_P1;PMS_P2;Temp;Humidity;BMP_temperature;BMP_pressure;BME280_temperature;BME280_humidity;BME280_pressure;Samples;Min_cycle;Max_cycle;Signal;HPM_P1;HPM_P2
2022/01/15 00:01:02;;;;;;;48.42;17.33;;;;;;;;;;6186510;28;20050;-65
2022/01/15 00:04:03;;;;;;;51.90;17.10;;;;;;;;;;6188346;28;20576;-63
2022/01/15 00:07:04;;;;;;;40.40;16.52;;;;;;;;;;6189341;28;20429;-65
2022/01/15 00:10:06;;;;;;;40.90;15.63;;;;;;;;;;6187726;28;20057;-64
2022/01/15 00:13:18;;;;;;;41.17;14.57;;;;;;;;;;6188956;28;20149;-62
2022/01/15 00:16:45;;;;;;;43.30;16.75;;;;;;;;;;6191239;28;20058;-62
2022/01/15 00:19:47;;;;;;;38.25;13.60;;;;;;;;;;6185273;28;20080;-65
2022/01/15 00:22:48;;;;;;;39.67;15.02;;;;;;;;;;6183380;28;20081;-66
2022/01/15 00:25:49;;;;;;;42.63;14.93;;;;;;;;;;6187882;28;20081;-63
2022/01/15 00:28:49;;;;;;;37.92;14.50;;;;;;;;;;6190620;28;20069;-63
2022/01/15 00:31:50;;;;;;;41.45;14.85;;;;;;;;;;6182282;28;20508;-65
2022/01/15 00:34:51;;;;;;;43.17;15.50;;;;;;;;;;6185157;28;20068;-63
2022/01/15 00:37:51;;;;;;;35.83;13.85;;;;;;;;;;6183924;28;20053;-63
2022/01/15 00:40:52;;;;;;;42.78;14.75;;;;;;;;;;6187119;28;20046;-62
2022/01/15 00:43:53;;;;;;;39.50;13.38;;;;;;;;;;6192109;28;20055;-64
2022/01/15 00:46:53;;;;;;;42.88;14.45;;;;;;;;;;6191136;28;20052;-64
2022/01/15 00:49:54;;;;;;;41.28;14.65;;;;;;;;;;6188285;28;20775;-63
2022/01/15 00:52:55;;;;;;;46.03;15.32;;;;;;;;;;6188596;28;20054;-62
2022/01/15 00:55:56;;;;;;;38.88;14.93;;;;;;;;;;6188517;28;20901;-63
2022/01/15 00:58:56;;;;;;;40.25;14.43;;;;;;;;;;6190934;28;20137;-64
2022/01/15 01:01:57;;;;;;;41.53;13.35;;;;;;;;;;6188891;28;20526;-64
2022/01/15 01:04:57;;;;;;;43.28;16.48;;;;;;;;;;6188084;28;20545;-64
2022/01/15 01:07:58;;;;;;;41.65;14.85;;;;;;;;;;6191080;28;20141;-64
2022/01/15 01:11:02;;;;;;;41.25;15.40;;;;;;;;;;6189441;28;20097;-63
2022/01/15 01:20:50;;;;;;;39.13;14.73;;;;;;;;;;6184849;28;20453;-64
2022/01/15 01:23:51;;;;;;;43.60;14.35;;;;;;;;;;6186930;28;20422;-64
2022/01/15 01:27:00;;;;;;;40.58;13.82;;;;;;;;;;6181902;28;20055;-65
2022/01/15 01:30:10;;;;;;;37.58;14.63;;;;;;;;;;6190333;28;20046;-63
2022/01/15 01:36:39;;;;;;;34.38;13.93;;;;;;;;;;6174744;28;20078;-64
2022/01/15 01:39:51;;;;;;;34.75;13.38;;;;;;;;;;6180576;28;20066;-63
2022/01/15 01:43:05;;;;;;;32.58;13.18;;;;;;;;;;6179424;28;20069;-62
2022/01/15 01:46:18;;;;;;;41.03;14.10;;;;;;;;;;6181880;28;20085;-65
2022/01/15 01:49:20;;;;;;;40.17;15.05;;;;;;;;;;6182217;28;20050;-65
2022/01/15 01:52:21;;;;;;;37.58;15.35;;;;;;;;;;6181008;28;20847;-64
2022/01/15 01:55:23;;;;;;;40.20;13.85;;;;;;;;;;6180003;28;20047;-63
2022/01/15 01:58:24;;;;;;;44.65;14.20;;;;;;;;;;6179837;28;20473;-65
2022/01/15 02:01:25;;;;;;;38.00;14.75;;;;;;;;;;6179603;28;20133;-64
2022/01/15 02:04:26;;;;;;;41.45;14.68;;;;;;;;;;6176937;28;20061;-64
2022/01/15 02:07:26;;;;;;;37.90;13.43;;;;;;;;;;6181152;28;20229;-64
2022/01/15 02:10:28;;;;;;;45.50;14.63;;;;;;;;;;6178405;28;20061;-65
2022/01/15 02:13:30;;;;;;;35.40;13.02;;;;;;;;;;6180561;28;20062;-64
2022/01/15 02:16:30;;;;;;;31.83;12.65;;;;;;;;;;6183059;28;20047;-64
2022/01/15 02:19:32;;;;;;;38.08;11.90;;;;;;;;;;6176809;28;20050;-65
2022/01/15 02:25:54;;;;;;;48.72;13.00;;;;;;;;;;6176601;28;20054;-64
2022/01/15 02:28:59;;;;;;;44.35;12.13;;;;;;;;;;6178764;28;20520;-65
2022/01/15 02:32:00;;;;;;;41.17;12.05;;;;;;;;;;6181289;28;20081;-65
2022/01/15 02:35:03;;;;;;;36.38;12.48;;;;;;;;;;6180448;28;20050;-64
2022/01/15 02:38:08;;;;;;;35.90;11.82;;;;;;;;;;6179026;28;20094;-64
2022/01/15 02:41:10;;;;;;;45.15;12.80;;;;;;;;;;6182463;28;20057;-64
2022/01/15 02:44:17;;;;;;;40.97;12.90;;;;;;;;;;6181266;28;20072;-65
2022/01/15 02:50:37;;;;;;;33.50;11.98;;;;;;;;;;6183691;28;20181;-63
2022/01/15 02:53:38;;;;;;;31.80;12.35;;;;;;;;;;6182657;28;20124;-65
2022/01/15 02:56:41;;;;;;;33.08;11.30;;;;;;;;;;6185570;28;20578;-65
2022/01/15 02:59:42;;;;;;;31.58;10.82;;;;;;;;;;6182971;28;20815;-64
2022/01/15 03:02:43;;;;;;;36.78;12.27;;;;;;;;;;6185329;28;20163;-64
2022/01/15 03:05:44;;;;;;;33.10;12.25;;;;;;;;;;6182265;28;20047;-64
2022/01/15 03:08:46;;;;;;;30.85;10.40;;;;;;;;;;6179703;28;20134;-65
2022/01/15 03:11:46;;;;;;;40.05;12.00;;;;;;;;;;6185591;28;20042;-65
2022/01/15 03:14:48;;;;;;;33.70;11.82;;;;;;;;;;6182700;28;20597;-64
2022/01/15 03:17:50;;;;;;;35.33;11.65;;;;;;;;;;6185665;28;20524;-64
2022/01/15 03:20:51;;;;;;;33.77;11.63;;;;;;;;;;6181856;28;20054;-65
2022/01/15 03:23:52;;;;;;;31.15;10.48;;;;;;;;;;6183956;28;20053;-64
2022/01/15 03:26:52;;;;;;;35.15;12.07;;;;;;;;;;6184649;28;20511;-64
2022/01/15 03:29:53;;;;;;;29.88;11.95;;;;;;;;;;6184887;28;20074;-65
2022/01/15 03:32:54;;;;;;;34.53;11.82;;;;;;;;;;6182950;28;20055;-64
2022/01/15 03:35:55;;;;;;;31.65;12.38;;;;;;;;;;6182234;28;20073;-63
2022/01/15 03:38:55;;;;;;;32.97;11.80;;;;;;;;;;6182340;28;20172;-64
2022/01/15 03:41:56;;;;;;;31.92;12.02;;;;;;;;;;6184523;28;20460;-64
2022/01/15 03:44:56;;;;;;;35.13;11.55;;;;;;;;;;6182652;28;20049;-65
2022/01/15 03:47:57;;;;;;;30.63;11.00;;;;;;;;;;6185013;28;20066;-63
2022/01/15 03:50:58;;;;;;;30.63;11.85;;;;;;;;;;6184739;28;20137;-64
2022/01/15 03:53:59;;;;;;;32.33;11.40;;;;;;;;;;6176507;28;20489;-64
2022/01/15 03:57:00;;;;;;;30.90;11.48;;;;;;;;;;6183968;28;20049;-64
2022/01/15 04:00:05;;;;;;;33.23;12.07;;;;;;;;;;6181404;28;20630;-64
2022/01/15 04:03:06;;;;;;;30.90;10.70;;;;;;;;;;6194203;28;20050;-64
2022/01/15 04:06:07;;;;;;;32.80;11.63;;;;;;;;;;6181280;28;20550;-64
2022/01/15 04:09:08;;;;;;;25.88;10.82;;;;;;;;;;6177512;28;20050;-64
2022/01/15 04:12:09;;;;;;;31.33;10.55;;;;;;;;;;6184254;28;20063;-65
2022/01/15 04:15:13;;;;;;;28.45;9.68;;;;;;;;;;6180615;28;20046;-64
2022/01/15 04:18:14;;;;;;;22.98;9.55;;;;;;;;;;6182950;28;20128;-63
2022/01/15 04:21:14;;;;;;;27.45;9.68;;;;;;;;;;6182567;28;20054;-64
2022/01/15 04:24:20;;;;;;;32.10;10.40;;;;;;;;;;6180802;28;20057;-64
2022/01/15 04:27:22;;;;;;;32.92;10.65;;;;;;;;;;6181977;28;20065;-64
2022/01/15 04:30:24;;;;;;;27.02;10.10;;;;;;;;;;6182395;28;20093;-64
2022/01/15 04:33:25;;;;;;;;;;;;;;;;;;6181178;28;20046;-64
2022/01/15 04:36:26;;;;;;;27.40;8.80;;;;;;;;;;6178515;28;19930;-64
2022/01/15 04:39:26;;;;;;;26.45;9.32;;;;;;;;;;6181445;28;20561;-64
2022/01/15 04:42:29;;;;;;;27.20;10.30;;;;;;;;;;6183467;28;20046;-64
2022/01/15 04:45:30;;;;;;;28.67;10.15;;;;;;;;;;6182451;28;20065;-64
2022/01/15 04:48:31;;;;;;;24.27;9.55;;;;;;;;;;6178214;28;20136;-65
2022/01/15 04:51:32;;;;;;;25.77;9.05;;;;;;;;;;6183418;28;20051;-64
2022/01/15 04:54:33;;;;;;;29.17;9.63;;;;;;;;;;6182334;28;20074;-64
2022/01/15 04:57:34;;;;;;;24.75;9.05;;;;;;;;;;6194642;28;20486;-64
2022/01/15 05:00:36;;;;;;;30.77;10.98;;;;;;;;;;6186807;28;20057;-64
2022/01/15 05:03:36;;;;;;;29.88;10.38;;;;;;;;;;6182294;28;20137;-65
2022/01/15 05:06:37;;;;;;;22.80;10.40;;;;;;;;;;6179508;28;20050;-65
2022/01/15 05:09:38;;;;;;;29.50;10.52;;;;;;;;;;6182303;28;20050;-65
2022/01/15 05:12:46;;;;;;;28.65;9.75;;;;;;;;;;6182645;28;20089;-64
2022/01/15 05:15:48;;;;;;;29.95;9.88;;;;;;;;;;6178550;28;20050;-64
2022/01/15 05:18:49;;;;;;;29.55;9.43;;;;;;;;;;6182461;28;20174;-65
2022/01/15 05:21:50;;;;;;;30.38;9.65;;;;;;;;;;6176629;28;20158;-65
2022/01/15 05:24:51;;;;;;;26.33;9.65;;;;;;;;;;6174586;28;20039;-65
2022/01/15 05:27:51;;;;;;;27.77;10.35;;;;;;;;;;6181483;28;20510;-65
2022/01/15 05:30:52;;;;;;;34.97;10.43;;;;;;;;;;6176978;28;20065;-65
2022/01/15 05:33:53;;;;;;;28.80;10.50;;;;;;;;;;6179360;28;20136;-65
2022/01/15 05:36:54;;;;;;;31.13;10.45;;;;;;;;;;6178787;28;20651;-65
2022/01/15 05:39:55;;;;;;;31.67;10.98;;;;;;;;;;6196753;28;20050;-65
2022/01/15 05:42:55;;;;;;;27.75;10.18;;;;;;;;;;6182064;28;20050;-64
2022/01/15 05:45:56;;;;;;;32.92;11.50;;;;;;;;;;6181813;28;20126;-64
2022/01/15 05:48:57;;;;;;;33.85;9.77;;;;;;;;;;6182208;28;20061;-64
2022/01/15 05:51:57;;;;;;;26.67;10.10;;;;;;;;;;6180479;28;20056;-65
2022/01/15 05:54:58;;;;;;;33.58;10.07;;;;;;;;;;6180606;28;20070;-64
2022/01/15 05:57:58;;;;;;;30.15;10.10;;;;;;;;;;6181787;28;20125;-63
2022/01/15 06:00:59;;;;;;;26.85;10.48;;;;;;;;;;6180781;28;20058;-64
2022/01/15 06:04:00;;;;;;;25.52;9.32;;;;;;;;;;6182847;28;20073;-64
2022/01/15 06:07:01;;;;;;;31.25;11.45;;;;;;;;;;6194450;28;20066;-64
2022/01/15 06:10:03;;;;;;;29.27;10.82;;;;;;;;;;6181921;28;20050;-65
2022/01/15 06:13:04;;;;;;;28.77;11.40;;;;;;;;;;6179636;28;20053;-65
2022/01/15 06:16:04;;;;;;;36.75;11.43;;;;;;;;;;6183612;28;20133;-64
2022/01/15 06:19:05;;;;;;;38.00;10.75;;;;;;;;;;6184943;28;20042;-63
2022/01/15 06:22:06;;;;;;;35.22;12.40;;;;;;;;;;6184650;28;20130;-63
2022/01/15 06:25:07;;;;;;;32.45;11.57;;;;;;;;;;6186396;28;20073;-63
2022/01/15 06:28:08;;;;;;;40.33;12.40;;;;;;;;;;6185533;28;20092;-63
2022/01/15 06:31:09;;;;;;;33.90;10.45;;;;;;;;;;6186638;28;20042;-64
2022/01/15 06:34:09;;;;;;;26.33;9.85;;;;;;;;;;6184961;28;20057;-64
2022/01/15 06:37:10;;;;;;;34.78;11.98;;;;;;;;;;6196916;28;20096;-64
2022/01/15 06:40:11;;;;;;;33.83;11.15;;;;;;;;;;6185627;28;20042;-64
2022/01/15 06:43:12;;;;;;;35.63;12.25;;;;;;;;;;6182523;28;20145;-63
2022/01/15 06:46:13;;;;;;;38.30;11.73;;;;;;;;;;6185022;28;20043;-63
2022/01/15 06:49:13;;;;;;;29.55;10.82;;;;;;;;;;6184843;28;20050;-62
2022/01/15 06:52:14;;;;;;;33.47;10.40;;;;;;;;;;6196126;28;20504;-63
2022/01/15 06:55:15;;;;;;;31.58;9.65;;;;;;;;;;6195516;28;20078;-63
2022/01/15 06:58:16;;;;;;;33.72;10.18;;;;;;;;;;6196102;28;20065;-64
2022/01/15 07:01:16;;;;;;;34.72;10.57;;;;;;;;;;6195726;28;20061;-62
2022/01/15 07:04:17;;;;;;;32.75;11.15;;;;;;;;;;6194877;28;20125;-63
2022/01/15 07:07:18;;;;;;;34.75;12.70;;;;;;;;;;6194653;28;20105;-61
2022/01/15 07:10:18;;;;;;;32.78;11.43;;;;;;;;;;6190132;28;20074;-63
2022/01/15 07:13:20;;;;;;;27.63;10.55;;;;;;;;;;6194514;28;20065;-62
2022/01/15 07:16:20;;;;;;;44.30;12.45;;;;;;;;;;6191030;28;20050;-63
2022/01/15 07:19:21;;;;;;;37.63;10.15;;;;;;;;;;6194378;28;20436;-63
2022/01/15 07:22:22;;;;;;;28.92;10.55;;;;;;;;;;6194709;28;20142;-66
2022/01/15 07:25:23;;;;;;;30.27;10.32;;;;;;;;;;6176734;28;20120;-63
2022/01/15 07:28:25;;;;;;;35.60;11.20;;;;;;;;;;6184732;28;20068;-63
2022/01/15 07:31:26;;;;;;;31.77;10.02;;;;;;;;;;6183316;28;20116;-63
2022/01/15 07:34:26;;;;;;;37.80;10.45;;;;;;;;;;6189664;28;20102;-64
2022/01/15 07:37:27;;;;;;;31.55;9.88;;;;;;;;;;6195305;28;20093;-63
2022/01/15 07:40:28;;;;;;;33.20;10.93;;;;;;;;;;6188786;28;20081;-63
2022/01/15 07:43:30;;;;;;;31.70;11.13;;;;;;;;;;6185013;28;20406;-65
2022/01/15 07:46:31;;;;;;;31.38;11.35;;;;;;;;;;6182495;28;20042;-64
2022/01/15 07:49:32;;;;;;;31.27;11.00;;;;;;;;;;6182467;28;20049;-63
2022/01/15 07:52:33;;;;;;;34.15;10.77;;;;;;;;;;6176273;28;20446;-63
2022/01/15 07:55:34;;;;;;;31.30;11.10;;;;;;;;;;6181131;28;20093;-63
2022/01/15 07:58:34;;;;;;;32.97;11.15;;;;;;;;;;6184936;28;20058;-63
2022/01/15 08:01:35;;;;;;;40.83;12.55;;;;;;;;;;6183239;28;20551;-63
2022/01/15 08:04:35;;;;;;;42.70;11.10;;;;;;;;;;6179721;28;20054;-63
2022/01/15 08:07:37;;;;;;;34.97;11.25;;;;;;;;;;6182274;28;20524;-63
2022/01/15 08:10:38;;;;;;;38.58;11.05;;;;;;;;;;6187013;28;20390;-63
2022/01/15 08:13:39;;;;;;;31.35;11.00;;;;;;;;;;6194318;28;20042;-63
2022/01/15 08:16:39;;;;;;;41.95;11.38;;;;;;;;;;6185905;28;20093;-63
2022/01/15 08:19:40;;;;;;;34.00;11.57;;;;;;;;;;6182727;28;20506;-62
2022/01/15 08:22:42;;;;;;;35.22;11.90;;;;;;;;;;6180682;28;20085;-67
2022/01/15 08:25:43;;;;;;;34.20;11.82;;;;;;;;;;6185961;28;20105;-65
2022/01/15 08:28:44;;;;;;;32.63;11.43;;;;;;;;;;6181638;28;20079;-65
2022/01/15 08:31:45;;;;;;;31.25;11.82;;;;;;;;;;6190493;28;20086;-70
2022/01/15 08:34:47;;;;;;;29.73;10.90;;;;;;;;;;6193270;28;20058;-63
2022/01/15 08:37:48;;;;;;;27.30;10.05;;;;;;;;;;6171574;28;20058;-63
2022/01/15 08:40:49;;;;;;;34.45;10.43;;;;;;;;;;6189034;28;20034;-63
2022/01/15 08:43:50;;;;;;;32.67;11.07;;;;;;;;;;6189111;28;20050;-61
2022/01/15 08:46:51;;;;;;;28.10;10.50;;;;;;;;;;6190323;28;20178;-64
2022/01/15 08:49:53;;;;;;;35.83;10.50;;;;;;;;;;6193388;28;20061;-63
2022/01/15 08:52:53;;;;;;;29.95;10.07;;;;;;;;;;6178120;28;20477;-67
2022/01/15 08:55:55;;;;;;;31.38;10.60;;;;;;;;;;6187635;28;20327;-61
2022/01/15 08:58:55;;;;;;;32.22;9.77;;;;;;;;;;6183358;28;20512;-60
2022/01/15 09:01:57;;;;;;;31.15;9.82;;;;;;;;;;6185653;28;20063;-64
2022/01/15 09:04:58;;;;;;;30.65;10.80;;;;;;;;;;6190439;28;20035;-60
2022/01/15 09:07:59;;;;;;;35.65;10.45;;;;;;;;;;6193899;28;20058;-61
2022/01/15 09:10:59;;;;;;;29.65;9.52;;;;;;;;;;6192933;28;20486;-61
2022/01/15 09:14:00;;;;;;;27.52;9.98;;;;;;;;;;6189715;28;20058;-64
2022/01/15 09:17:00;;;;;;;24.58;9.43;;;;;;;;;;6189580;28;20050;-59
2022/01/15 09:20:03;;;;;;;29.75;10.55;;;;;;;;;;6193492;28;20692;-68
2022/01/15 09:23:04;;;;;;;28.02;10.25;;;;;;;;;;6193159;28;20391;-65
2022/01/15 09:26:06;;;;;;;25.83;10.77;;;;;;;;;;6180959;28;20042;-65
2022/01/15 09:32:26;;;;;;;26.58;10.40;;;;;;;;;;6179240;28;20012;-69
2022/01/15 09:35:28;;;;;;;29.25;8.88;;;;;;;;;;6175567;28;20622;-67
2022/01/15 09:38:30;;;;;;;24.00;8.30;;;;;;;;;;6184004;28;20112;-67
2022/01/15 09:41:31;;;;;;;22.05;8.02;;;;;;;;;;6180146;28;20046;-63
2022/01/15 09:44:33;;;;;;;22.38;7.68;;;;;;;;;;6178364;28;20444;-75
2022/01/15 09:47:34;;;;;;;;;;;;;;;;;;6180118;28;20394;-74
2022/01/15 09:50:42;;;;;;;28.70;7.70;;;;;;;;;;6185027;28;19976;-70
2022/01/15 09:53:43;;;;;;;25.15;9.43;;;;;;;;;;6187057;28;20050;-72
2022/01/15 09:56:46;;;;;;;23.38;8.95;;;;;;;;;;6179359;28;20042;-58
2022/01/15 09:59:47;;;;;;;25.27;9.23;;;;;;;;;;6188668;28;20120;-73
2022/01/15 10:02:53;;;;;;;26.40;9.02;;;;;;;;;;6186900;28;20386;-73
2022/01/15 10:05:53;;;;;;;20.80;9.02;;;;;;;;;;6184757;28;20467;-73
2022/01/15 10:09:05;;;;;;;23.35;8.40;;;;;;;;;;6187921;28;20046;-66
2022/01/15 10:12:06;;;;;;;25.02;9.35;;;;;;;;;;6185455;28;20056;-67
2022/01/15 10:15:07;;;;;;;30.98;8.40;;;;;;;;;;6186811;28;20073;-57
2022/01/15 10:18:44;;;;;;;25.45;10.20;;;;;;;;;;6182589;28;20046;-59
2022/01/15 10:22:04;;;;;;;30.02;10.32;;;;;;;;;;6178930;28;20141;-72
2022/01/15 10:25:07;;;;;;;29.88;10.27;;;;;;;;;;6188668;28;20050;-69
2022/01/15 10:28:09;;;;;;;31.88;11.95;;;;;;;;;;6185126;28;20124;-63
2022/01/15 10:31:24;;;;;;;33.10;12.55;;;;;;;;;;6187099;28;20042;-65
2022/01/15 10:34:32;;;;;;;31.27;10.95;;;;;;;;;;6186589;28;20569;-69
2022/01/15 10:37:36;;;;;;;35.95;12.20;;;;;;;;;;6184496;28;20065;-59
2022/01/15 10:40:39;;;;;;;35.40;13.20;;;;;;;;;;6185891;28;20420;-59
2022/01/15 10:43:39;;;;;;;33.22;10.68;;;;;;;;;;6182225;28;20042;-59
2022/01/15 10:46:40;;;;;;;30.20;12.48;;;;;;;;;;6186365;28;20060;-74
2022/01/15 10:49:42;;;;;;;34.10;12.95;;;;;;;;;;6183230;28;20418;-69
2022/01/15 10:52:43;;;;;;;39.85;13.63;;;;;;;;;;6176619;28;20066;-67
2022/01/15 10:55:45;;;;;;;33.33;13.65;;;;;;;;;;6186188;28;20592;-71
2022/01/15 10:58:46;;;;;;;35.03;12.27;;;;;;;;;;6185796;28;20049;-65
2022/01/15 11:01:47;;;;;;;27.92;12.43;;;;;;;;;;6184472;28;20480;-58
2022/01/15 11:04:47;;;;;;;35.42;12.43;;;;;;;;;;6183223;28;20088;-70
2022/01/15 11:07:48;;;;;;;39.97;14.65;;;;;;;;;;6183728;28;20145;-60
2022/01/15 11:10:52;;;;;;;27.90;11.05;;;;;;;;;;6183962;28;20049;-71
2022/01/15 11:13:53;;;;;;;41.45;12.30;;;;;;;;;;6183963;28;20179;-72
2022/01/15 11:16:55;;;;;;;33.65;12.32;;;;;;;;;;6185319;28;20050;-68
2022/01/15 11:19:56;;;;;;;37.63;12.02;;;;;;;;;;6182141;28;20042;-76
2022/01/15 11:23:02;;;;;;;29.83;12.47;;;;;;;;;;6185371;28;20412;-59
2022/01/15 11:26:06;;;;;;;25.75;11.25;;;;;;;;;;6183925;28;20047;-71
2022/01/15 11:29:07;;;;;;;27.50;9.65;;;;;;;;;;6185582;28;20054;-66
2022/01/15 11:32:12;;;;;;;23.95;9.55;;;;;;;;;;6183353;28;20161;-65
2022/01/15 11:35:13;;;;;;;27.48;9.00;;;;;;;;;;6183249;28;20054;-76
2022/01/15 11:38:40;;;;;;;35.33;9.93;;;;;;;;;;6179197;28;20426;-59
2022/01/15 11:41:43;;;;;;;28.77;9.00;;;;;;;;;;6183143;28;20042;-66
2022/01/15 11:44:43;;;;;;;25.90;8.35;;;;;;;;;;6177767;28;20051;-59
2022/01/15 11:47:44;;;;;;;28.83;9.70;;;;;;;;;;6170860;28;20054;-66
2022/01/15 11:50:45;;;;;;;32.13;10.00;;;;;;;;;;6181587;28;20042;-66
2022/01/15 11:53:48;;;;;;;28.35;9.77;;;;;;;;;;6181153;28;20105;-59
2022/01/15 11:56:50;;;;;;;26.10;9.27;;;;;;;;;;6182722;28;20462;-73
2022/01/15 11:59:55;;;;;;;29.75;9.45;;;;;;;;;;6185334;28;20477;-71
2022/01/15 12:03:14;;;;;;;31.05;9.32;;;;;;;;;;6183893;28;20050;-63
2022/01/15 12:06:15;;;;;;;32.47;9.98;;;;;;;;;;6182796;28;20074;-74
2022/01/15 12:09:34;;;;;;;32.65;8.25;;;;;;;;;;6184662;28;20072;-59
2022/01/15 12:12:42;;;;;;;25.17;8.02;;;;;;;;;;6184446;28;20114;-74
2022/01/15 12:15:43;;;;;;;24.42;7.93;;;;;;;;;;6180934;28;20371;-66
2022/01/15 12:18:46;;;;;;;22.85;8.18;;;;;;;;;;6182678;28;20044;-60
2022/01/15 12:21:48;;;;;;;20.88;6.80;;;;;;;;;;6182301;28;20049;-60
2022/01/15 12:24:52;;;;;;;24.85;7.38;;;;;;;;;;6179143;28;20101;-79
2022/01/15 12:27:59;;;;;;;25.05;7.35;;;;;;;;;;6184704;28;20058;-74
2022/01/15 12:31:00;;;;;;;25.08;8.43;;;;;;;;;;6182807;28;20496;-69
2022/01/15 12:34:01;;;;;;;28.75;8.13;;;;;;;;;;6181706;28;20046;-75
2022/01/15 12:37:02;;;;;;;24.55;7.90;;;;;;;;;;6180454;28;20053;-62
2022/01/15 12:40:06;;;;;;;30.23;8.52;;;;;;;;;;6182002;28;20059;-60
2022/01/15 12:43:10;;;;;;;26.25;7.85;;;;;;;;;;6181257;28;20457;-60
2022/01/15 12:46:15;;;;;;;27.88;8.57;;;;;;;;;;6181402;28;20069;-63
2022/01/15 12:49:16;;;;;;;25.25;6.82;;;;;;;;;;6182729;28;20513;-59
2022/01/15 12:52:16;;;;;;;25.92;6.97;;;;;;;;;;6184444;28;20057;-59
2022/01/15 12:55:17;;;;;;;23.58;7.53;;;;;;;;;;6193386;28;20047;-73
2022/01/15 12:58:22;;;;;;;20.25;7.40;;;;;;;;;;6194261;28;20149;-60
2022/01/15 13:01:27;;;;;;;23.38;6.75;;;;;;;;;;6186978;28;20050;-59
2022/01/15 13:04:28;;;;;;;25.20;7.65;;;;;;;;;;6178861;28;20170;-72
2022/01/15 13:07:48;;;;;;;23.98;7.63;;;;;;;;;;6179990;28;20440;-74
2022/01/15 13:10:57;;;;;;;20.90;6.55;;;;;;;;;;6181400;28;20038;-72
2022/01/15 13:14:05;;;;;;;28.58;7.53;;;;;;;;;;6182303;28;20054;-67
2022/01/15 13:17:22;;;;;;;25.65;7.28;;;;;;;;;;6183301;28;20061;-67
2022/01/15 13:20:28;;;;;;;20.50;6.57;;;;;;;;;;6180401;28;20081;-67
2022/01/15 13:24:02;;;;;;;20.48;7.13;;;;;;;;;;6179452;28;20192;-72
2022/01/15 13:27:04;;;;;;;20.63;6.90;;;;;;;;;;6177621;28;20050;-74
2022/01/15 13:30:05;;;;;;;23.83;8.10;;;;;;;;;;6174611;28;20051;-77
2022/01/15 13:33:07;;;;;;;28.40;8.18;;;;;;;;;;6176772;28;20054;-59
2022/01/15 13:36:16;;;;;;;30.30;8.10;;;;;;;;;;6178897;28;20046;-57
2022/01/15 13:39:18;;;;;;;27.10;9.05;;;;;;;;;;6182735;28;20469;-76
2022/01/15 13:42:21;;;;;;;20.53;8.83;;;;;;;;;;6181716;28;20058;-57
2022/01/15 13:45:24;;;;;;;26.00;8.70;;;;;;;;;;6183564;28;20295;-61
2022/01/15 13:48:25;;;;;;;34.83;9.73;;;;;;;;;;6185322;28;20543;-66
2022/01/15 13:55:00;;;;;;;26.27;8.75;;;;;;;;;;6182486;28;20046;-75
2022/01/15 13:58:15;;;;;;;30.17;10.20;;;;;;;;;;6180581;28;20074;-60
2022/01/15 14:01:18;;;;;;;23.70;8.68;;;;;;;;;;6182408;28;20039;-67
2022/01/15 14:04:20;;;;;;;32.53;8.55;;;;;;;;;;6181246;28;20051;-66
2022/01/15 14:07:25;;;;;;;35.40;9.83;;;;;;;;;;6179282;28;20062;-61
2022/01/15 14:10:26;;;;;;;26.25;9.07;;;;;;;;;;6181229;28;20354;-66
2022/01/15 14:13:28;;;;;;;35.38;9.35;;;;;;;;;;6181595;28;20058;-58
2022/01/15 14:16:29;;;;;;;34.35;10.85;;;;;;;;;;6178605;28;20042;-57
2022/01/15 14:20:02;;;;;;;32.20;10.02;;;;;;;;;;6177233;28;20482;-63
2022/01/15 14:23:04;;;;;;;30.63;9.63;;;;;;;;;;6180352;28;20046;-62
2022/01/15 14:26:18;;;;;;;61.63;16.02;;;;;;;;;;6178915;28;20169;-65
2022/01/15 14:29:19;;;;;;;72.80;18.90;;;;;;;;;;6174254;28;20051;-59
2022/01/15 14:32:21;;;;;;;65.05;17.00;;;;;;;;;;6180325;28;20073;-60
2022/01/15 14:35:26;;;;;;;;;;;;;;;;;;6192172;28;20057;-67
2022/01/15 14:38:27;;;;;;;59.28;14.65;;;;;;;;;;6195773;28;19937;-59
2022/01/15 14:41:27;;;;;;;55.20;17.10;;;;;;;;;;6192621;28;20766;-59
2022/01/15 14:44:29;;;;;;;44.35;13.27;;;;;;;;;;6173785;28;20082;-63
2022/01/15 14:47:29;;;;;;;34.85;12.20;;;;;;;;;;6190319;28;20042;-60
2022/01/15 14:50:30;;;;;;;38.67;12.73;;;;;;;;;;6196959;28;20563;-60
2022/01/15 14:53:31;;;;;;;34.17;10.48;;;;;;;;;;6189642;28;20054;-59
2022/01/15 14:56:32;;;;;;;32.78;11.25;;;;;;;;;;6194847;28;20125;-60
2022/01/15 14:59:33;;;;;;;37.95;12.30;;;;;;;;;;6197193;28;20081;-59
2022/01/15 15:02:36;;;;;;;33.97;12.48;;;;;;;;;;6197044;28;20473;-59
2022/01/15 15:05:37;;;;;;;39.13;11.95;;;;;;;;;;6196031;28;20089;-64
2022/01/15 15:08:37;;;;;;;42.78;11.48;;;;;;;;;;6194371;28;20485;-64
2022/01/15 15:11:38;;;;;;;36.88;11.85;;;;;;;;;;6195914;28;20050;-66
2022/01/15 15:14:40;;;;;;;37.72;13.05;;;;;;;;;;6197475;28;20133;-66
2022/01/15 15:17:41;;;;;;;40.05;14.40;;;;;;;;;;6195403;28;20054;-59
2022/01/15 15:20:43;;;;;;;40.90;13.55;;;;;;;;;;6193632;28;20120;-59
2022/01/15 15:23:44;;;;;;;44.85;14.35;;;;;;;;;;6172883;28;20050;-65
2022/01/15 15:26:45;;;;;;;42.17;13.18;;;;;;;;;;6172291;28;20081;-65
2022/01/15 15:29:47;;;;;;;41.15;13.55;;;;;;;;;;6172302;28;21102;-68
2022/01/15 15:32:48;;;;;;;51.95;17.55;;;;;;;;;;6189702;28;20166;-63
2022/01/15 15:35:49;;;;;;;53.47;17.30;;;;;;;;;;6195021;28;20445;-59
2022/01/15 15:38:50;;;;;;;48.03;17.45;;;;;;;;;;6193487;28;20054;-68
2022/01/15 15:41:51;;;;;;;56.75;18.70;;;;;;;;;;6195369;28;20050;-60
2022/01/15 15:44:51;;;;;;;54.20;17.77;;;;;;;;;;6196441;28;20085;-61
2022/01/15 15:47:53;;;;;;;69.90;22.17;;;;;;;;;;6193714;28;20092;-61
2022/01/15 15:50:54;;;;;;;73.77;25.20;;;;;;;;;;6195896;28;20054;-62
2022/01/15 15:53:55;;;;;;;80.20;27.33;;;;;;;;;;6195069;28;20364;-61
2022/01/15 15:56:55;;;;;;;84.43;25.98;;;;;;;;;;6186990;28;20050;-60
2022/01/15 15:59:57;;;;;;;73.38;22.75;;;;;;;;;;6183471;28;20113;-61
2022/01/15 16:02:57;;;;;;;63.92;21.75;;;;;;;;;;6178971;28;20084;-61
2022/01/15 16:06:02;;;;;;;62.88;20.33;;;;;;;;;;6179706;28;20496;-61
2022/01/15 16:09:04;;;;;;;65.38;23.98;;;;;;;;;;6171919;28;20045;-61
2022/01/15 16:12:05;;;;;;;73.77;26.00;;;;;;;;;;6171220;28;20050;-61
2022/01/15 16:15:07;;;;;;;81.95;27.95;;;;;;;;;;6171607;28;20057;-59
2022/01/15 16:18:07;;;;;;;90.60;28.33;;;;;;;;;;6170740;28;20089;-60
2022/01/15 16:21:08;;;;;;;96.15;33.08;;;;;;;;;;6184058;28;20512;-61
2022/01/15 16:24:09;;;;;;;111.22;35.92;;;;;;;;;;6189166;28;20158;-61
2022/01/15 16:27:09;;;;;;;83.50;29.95;;;;;;;;;;6178453;28;20078;-60
2022/01/15 16:30:13;;;;;;;92.88;30.88;;;;;;;;;;6179931;28;20050;-61
2022/01/15 16:33:15;;;;;;;99.20;32.65;;;;;;;;;;6183768;28;20054;-60
2022/01/15 16:36:16;;;;;;;90.40;29.85;;;;;;;;;;6175202;28;20125;-60
2022/01/15 16:39:17;;;;;;;93.85;31.65;;;;;;;;;;6181393;28;20452;-60
2022/01/15 16:42:17;;;;;;;109.30;37.88;;;;;;;;;;6174070;28;20856;-60
2022/01/15 16:45:19;;;;;;;97.15;31.23;;;;;;;;;;6182802;28;20122;-61
2022/01/15 16:48:20;;;;;;;114.80;32.45;;;;;;;;;;6186339;28;20448;-61
2022/01/15 16:51:21;;;;;;;121.97;33.95;;;;;;;;;;6182240;28;20169;-61
2022/01/15 16:54:22;;;;;;;108.03;32.53;;;;;;;;;;6184715;28;20047;-63
2022/01/15 16:57:22;;;;;;;157.55;46.05;;;;;;;;;;6179337;28;20057;-62
2022/01/15 17:00:23;;;;;;;123.18;38.17;;;;;;;;;;6195637;28;20570;-61
2022/01/15 17:03:24;;;;;;;112.22;35.50;;;;;;;;;;6183685;28;20122;-61
2022/01/15 17:06:25;;;;;;;101.97;33.35;;;;;;;;;;6175809;28;20046;-61
2022/01/15 17:09:26;;;;;;;95.05;32.80;;;;;;;;;;6177945;28;20150;-62
2022/01/15 17:12:27;;;;;;;75.22;25.70;;;;;;;;;;6165690;28;20081;-61
2022/01/15 17:15:27;;;;;;;57.70;19.58;;;;;;;;;;6178284;28;20047;-59
2022/01/15 17:18:28;;;;;;;64.35;20.20;;;;;;;;;;6170959;28;20057;-59
2022/01/15 17:21:29;;;;;;;61.00;21.70;;;;;;;;;;6173145;28;20652;-61
2022/01/15 17:24:29;;;;;;;71.40;22.27;;;;;;;;;;6171582;28;20470;-61
2022/01/15 17:27:31;;;;;;;66.20;22.77;;;;;;;;;;6180343;28;20062;-59
2022/01/15 17:30:33;;;;;;;63.33;20.25;;;;;;;;;;6181262;28;20051;-59
2022/01/15 17:33:34;;;;;;;65.45;20.25;;;;;;;;;;6182287;28;20072;-59
2022/01/15 17:36:35;;;;;;;64.32;21.05;;;;;;;;;;6180676;28;20153;-59
2022/01/15 17:39:36;;;;;;;65.10;20.88;;;;;;;;;;6174677;28;20050;-61
2022/01/15 17:42:37;;;;;;;57.53;20.53;;;;;;;;;;6170538;28;20565;-59
2022/01/15 17:45:40;;;;;;;64.70;21.20;;;;;;;;;;6171064;28;20042;-60
2022/01/15 17:48:41;;;;;;;;;;;;;;;;;;6171425;28;20054;-60
2022/01/15 17:51:41;;;;;;;55.75;21.75;;;;;;;;;;6173447;28;20399;-61
2022/01/15 17:54:42;;;;;;;65.97;22.60;;;;;;;;;;6176141;28;20046;-61
2022/01/15 17:57:43;;;;;;;90.07;29.42;;;;;;;;;;6178859;28;20258;-60
2022/01/15 18:00:44;;;;;;;87.38;30.67;;;;;;;;;;6177702;28;20443;-61
2022/01/15 18:03:44;;;;;;;101.30;34.22;;;;;;;;;;6172808;28;20042;-62
2022/01/15 18:06:45;;;;;;;105.20;34.45;;;;;;;;;;6171322;28;20141;-62
2022/01/15 18:09:46;;;;;;;112.20;38.22;;;;;;;;;;6180118;28;20058;-60